Time;durP1;ratioP1;P1;durP2;ratioP2;P2;SDS_P1;SDS_P2;PMS_P1;PMS_P2;Temp;Humidity;BMP_temperature;BMP_pressure;BME280_temperature;BME280_humidity;BME280_pressure;Samples;Min_cycle;Max_cycle;Signal;HPM_P1;HPM_P2
2022/03/12 00:02:13;;;;;;;20.65;13.38;;;;;;;10.13;40.70;101207.81;4993239;28;20038;-70
2022/03/12 00:04:41;;;;;;;21.65;14.18;;;;;;;10.13;41.05;101201.72;5003352;28;20068;-70
2022/03/12 00:07:09;;;;;;;20.52;13.75;;;;;;;10.12;41.23;101194.78;5012211;28;20049;-70
2022/03/12 00:09:35;;;;;;;21.83;13.60;;;;;;;10.13;41.11;101204.34;5013532;28;20025;-70
2022/03/12 00:12:01;;;;;;;18.48;13.27;;;;;;;10.10;41.15;101204.56;5012079;28;20499;-70
2022/03/12 00:14:30;;;;;;;21.65;14.55;;;;;;;10.11;41.23;101208.88;5009038;28;20034;-72
2022/03/12 00:16:55;;;;;;;19.75;14.10;;;;;;;10.11;41.84;101203.63;5010377;28;20021;-70
2022/03/12 00:19:21;;;;;;;22.17;14.20;;;;;;;10.09;42.25;101203.72;5012171;28;20025;-70
2022/03/12 00:21:49;;;;;;;22.92;14.30;;;;;;;10.11;42.09;101214.13;5012668;28;20478;-70
2022/03/12 00:24:15;;;;;;;21.30;14.25;;;;;;;10.10;42.30;101212.44;5012162;28;20033;-70
2022/03/12 00:26:43;;;;;;;19.58;14.02;;;;;;;10.10;42.16;101217.72;5012344;28;20031;-70
2022/03/12 00:29:14;;;;;;;21.98;14.10;;;;;;;10.10;42.07;101218.56;5009821;28;20160;-70
2022/03/12 00:31:44;;;;;;;20.42;13.93;;;;;;;10.12;41.86;101221.06;5012747;28;20029;-70
2022/03/12 00:34:09;;;;;;;21.60;14.43;;;;;;;10.11;41.98;101225.50;5004637;28;20072;-72
2022/03/12 00:36:35;;;;;;;20.98;13.50;;;;;;;10.13;41.87;101233.28;5011352;28;20085;-72
2022/03/12 00:39:00;;;;;;;19.45;13.15;;;;;;;10.11;42.15;101235.16;5011304;28;20116;-71
2022/03/12 00:41:27;;;;;;;18.98;13.50;;;;;;;10.14;42.18;101232.34;5013554;28;20029;-71
2022/03/12 00:43:52;;;;;;;19.65;13.27;;;;;;;10.11;42.51;101230.75;5020477;28;20029;-71
2022/03/12 00:46:20;;;;;;;19.77;13.60;;;;;;;10.12;42.77;101236.84;5012332;28;20493;-71
2022/03/12 00:48:45;;;;;;;21.08;13.55;;;;;;;10.11;43.14;101237.78;5028904;28;20022;-70
2022/03/12 00:51:11;;;;;;;18.92;14.05;;;;;;;10.10;43.72;101249.25;5028504;28;20026;-70
2022/03/12 00:53:38;;;;;;;19.63;14.40;;;;;;;10.10;44.21;101244.00;5011329;28;20030;-70
2022/03/12 00:56:05;;;;;;;22.02;14.93;;;;;;;10.07;44.93;101238.94;5012298;28;20493;-70
2022/03/12 00:58:30;;;;;;;21.83;13.88;;;;;;;10.05;45.15;101245.16;5010609;28;20033;-70
2022/03/12 01:00:56;;;;;;;19.95;14.48;;;;;;;10.03;45.06;101241.78;5011892;28;20068;-71
2022/03/12 01:03:21;;;;;;;21.50;14.10;;;;;;;10.02;44.96;101241.88;5011949;28;20367;-71
2022/03/12 01:05:49;;;;;;;22.70;14.90;;;;;;;10.00;45.21;101239.31;5011566;28;20029;-70
2022/03/12 01:08:19;;;;;;;22.40;14.82;;;;;;;9.98;45.42;101235.94;5009499;28;20088;-71
2022/03/12 01:10:45;;;;;;;22.98;14.25;;;;;;;9.99;45.32;101236.78;5012634;28;20481;-71
2022/03/12 01:13:11;;;;;;;19.88;13.93;;;;;;;9.97;45.73;101234.25;5022387;28;20033;-70
2022/03/12 01:15:37;;;;;;;20.75;14.32;;;;;;;9.98;46.42;101245.63;5010934;28;20030;-70
2022/03/12 01:18:02;;;;;;;23.35;15.00;;;;;;;9.93;47.27;101243.28;5024814;28;20100;-70
2022/03/12 01:20:28;;;;;;;21.60;14.63;;;;;;;9.94;47.14;101242.34;5031537;28;20393;-70
2022/03/12 01:22:54;;;;;;;21.15;15.10;;;;;;;9.93;47.66;101240.66;5030418;28;20678;-71
2022/03/12 01:25:19;;;;;;;23.33;14.57;;;;;;;9.93;47.67;101242.44;5017177;28;20104;-70
2022/03/12 01:27:45;;;;;;;20.67;14.45;;;;;;;9.90;48.56;101247.91;5006598;28;20026;-70
2022/03/12 01:30:11;;;;;;;22.13;14.77;;;;;;;9.88;49.37;101248.00;4991443;28;20030;-70
2022/03/12 01:32:37;;;;;;;22.80;15.18;;;;;;;9.85;49.20;101256.09;5006997;28;20546;-70
2022/03/12 01:35:04;;;;;;;22.00;14.52;;;;;;;9.83;50.38;101265.88;4992075;28;20108;-70
2022/03/12 01:37:29;;;;;;;20.88;15.27;;;;;;;9.78;51.72;101267.09;5009177;28;20140;-70
2022/03/12 01:39:55;;;;;;;22.90;15.43;;;;;;;9.73;52.60;101265.63;4993926;28;20443;-70
2022/03/12 01:42:22;;;;;;;23.02;15.88;;;;;;;9.69;52.48;101266.75;5011343;28;20458;-70
2022/03/12 01:44:50;;;;;;;25.88;15.55;;;;;;;9.66;54.01;101266.09;5009367;28;20026;-70
2022/03/12 01:47:19;;;;;;;22.55;15.73;;;;;;;9.62;53.63;101277.75;5011240;28;20105;-70
2022/03/12 01:49:47;;;;;;;23.50;15.65;;;;;;;9.54;55.28;101266.84;5011508;28;20025;-70
2022/03/12 01:52:13;;;;;;;21.92;16.23;;;;;;;9.51;56.14;101264.44;5004879;28;20036;-70
2022/03/12 01:54:42;;;;;;;21.27;16.13;;;;;;;9.49;55.05;101264.53;5008069;28;20386;-69
2022/03/12 01:57:09;;;;;;;22.55;16.13;;;;;;;9.45;56.47;101264.81;4990669;28;20033;-70
2022/03/12 01:59:35;;;;;;;23.73;16.73;;;;;;;9.38;56.77;101267.81;4991343;28;20056;-69
2022/03/12 02:02:02;;;;;;;23.25;15.27;;;;;;;9.33;56.51;101264.66;4990803;28;20447;-69
2022/03/12 02:04:29;;;;;;;22.25;16.40;;;;;;;9.33;56.69;101264.66;4990848;28;20042;-70
2022/03/12 02:06:58;;;;;;;23.10;15.77;;;;;;;9.29;57.07;101263.16;4990988;28;20022;-69
2022/03/12 02:09:24;;;;;;;22.48;15.40;;;;;;;9.29;56.88;101262.31;5005033;28;20430;-70
2022/03/12 02:11:51;;;;;;;21.77;15.55;;;;;;;9.28;55.69;101261.47;5008576;28;20064;-70
2022/03/12 02:14:20;;;;;;;20.30;15.00;;;;;;;9.26;55.75;101271.22;5014636;28;20060;-72
2022/03/12 02:16:52;;;;;;;26.58;16.15;;;;;;;9.26;56.20;101263.34;5015161;28;20036;-70
2022/03/12 02:19:19;;;;;;;;;;;;;;;9.35;54.24;101278.53;5017038;28;20025;-70
2022/03/12 02:21:50;;;;;;;20.15;14.98;;;;;;;9.28;55.00;101271.13;5005402;28;20025;-70
2022/03/12 02:24:17;;;;;;;22.73;15.38;;;;;;;9.25;55.07;101266.06;4989472;28;20077;-70
2022/03/12 02:26:44;;;;;;;22.55;15.25;;;;;;;9.25;55.85;101266.91;4989064;28;20453;-70
2022/03/12 02:29:12;;;;;;;20.83;14.85;;;;;;;9.25;55.73;101261.66;4989622;28;20061;-70
2022/03/12 02:31:45;;;;;;;22.90;15.23;;;;;;;9.26;55.30;101267.75;4991398;28;20030;-70
2022/03/12 02:34:12;;;;;;;25.75;15.45;;;;;;;9.25;55.80;101280.03;4990671;28;20458;-70
2022/03/12 02:36:41;;;;;;;19.73;14.75;;;;;;;9.24;55.86;101278.34;4990831;28;20042;-70
2022/03/12 02:39:07;;;;;;;22.85;15.13;;;;;;;9.27;55.57;101279.94;4989122;28;20121;-70
2022/03/12 02:41:33;;;;;;;21.38;15.30;;;;;;;9.27;56.00;101277.31;4998132;28;20026;-69
2022/03/12 02:43:58;;;;;;;21.33;14.52;;;;;;;9.27;56.33;101275.53;5009707;28;20032;-70
2022/03/12 02:46:28;;;;;;;23.58;15.05;;;;;;;9.29;56.27;101291.19;5009817;28;20061;-70
2022/03/12 02:48:54;;;;;;;20.90;14.60;;;;;;;9.28;56.53;101292.97;5010757;28;20022;-69
2022/03/12 02:51:22;;;;;;;21.35;14.93;;;;;;;9.28;56.41;101295.59;5010018;28;20478;-69
2022/03/12 02:53:52;;;;;;;23.75;15.30;;;;;;;9.30;56.15;101292.88;5009290;28;20116;-70
2022/03/12 02:56:19;;;;;;;20.85;14.90;;;;;;;9.26;56.89;101294.00;5009469;28;20018;-70
2022/03/12 02:58:44;;;;;;;20.13;14.57;;;;;;;9.27;57.28;101293.91;5009702;28;20533;-70
2022/03/12 03:01:14;;;;;;;20.42;14.63;;;;;;;9.27;56.97;101301.78;5008608;28;20065;-70
2022/03/12 03:03:43;;;;;;;21.02;14.68;;;;;;;9.25;56.69;101298.41;5009146;28;20017;-70
2022/03/12 03:06:09;;;;;;;21.20;13.80;;;;;;;9.24;57.09;101290.63;5009626;28;20030;-70
2022/03/12 03:08:39;;;;;;;24.88;15.02;;;;;;;9.21;57.61;101294.28;5009336;28;20483;-70
2022/03/12 03:11:13;;;;;;;21.45;14.05;;;;;;;9.21;57.31;101296.06;5008904;28;20422;-70
2022/03/12 03:13:44;;;;;;;18.80;14.70;;;;;;;9.17;57.84;101300.63;5021308;28;20423;-70
2022/03/12 03:16:15;;;;;;;20.42;14.38;;;;;;;9.16;58.00;101308.59;5007515;28;20075;-70
2022/03/12 03:18:41;;;;;;;20.40;14.68;;;;;;;9.13;58.25;101314.88;5018815;28;20033;-70
2022/03/12 03:21:13;;;;;;;20.33;14.77;;;;;;;9.11;57.53;101316.75;5028826;28;20029;-70
2022/03/12 03:23:43;;;;;;;21.88;14.70;;;;;;;9.05;58.66;101304.00;5027567;28;20053;-70
2022/03/12 03:26:08;;;;;;;19.30;14.00;;;;;;;9.04;58.41;101299.69;5027987;28;20018;-70
2022/03/12 03:28:34;;;;;;;20.65;14.93;;;;;;;9.00;58.73;101308.69;5025796;28;20104;-70
2022/03/12 03:30:59;;;;;;;19.30;14.18;;;;;;;8.96;59.47;101309.81;5013115;28;20033;-70
2022/03/12 03:33:26;;;;;;;18.95;13.13;;;;;;;8.94;60.31;101309.06;5033592;28;20037;-70
2022/03/12 03:35:52;;;;;;;19.35;13.57;;;;;;;8.91;60.66;101309.25;5015311;28;20128;-69
2022/03/12 03:38:18;;;;;;;18.63;13.25;;;;;;;8.90;61.47;101324.16;5033378;28;20105;-69
2022/03/12 03:40:44;;;;;;;17.83;12.05;;;;;;;8.89;62.63;101316.38;5033688;28;20036;-70
2022/03/12 03:43:15;;;;;;;19.20;12.73;;;;;;;8.88;63.08;101315.53;5014705;28;20032;-70
2022/03/12 03:45:43;;;;;;;16.42;11.82;;;;;;;8.87;63.82;101320.88;5022091;28;20060;-69
2022/03/12 03:48:12;;;;;;;15.73;11.82;;;;;;;8.85;64.59;101322.75;4997882;28;20371;-70
2022/03/12 03:50:37;;;;;;;16.88;11.88;;;;;;;8.83;64.80;101316.75;5019709;28;20032;-70
2022/03/12 03:53:03;;;;;;;14.88;11.18;;;;;;;8.83;64.81;101325.47;5024555;28;20026;-70
2022/03/12 03:55:30;;;;;;;13.43;11.05;;;;;;;8.81;65.58;101329.13;5013911;28;20025;-70
2022/03/12 03:57:57;;;;;;;14.27;11.32;;;;;;;8.78;65.52;101324.84;5011211;28;20021;-70
2022/03/12 04:00:23;;;;;;;13.98;10.80;;;;;;;8.75;66.05;101327.66;5013098;28;20030;-70
2022/03/12 04:02:55;;;;;;;14.73;11.23;;;;;;;8.72;66.16;101333.94;4999532;28;20034;-70
2022/03/12 04:05:22;;;;;;;13.32;10.68;;;;;;;8.72;66.29;101331.31;4992846;28;20375;-70
2022/03/12 04:07:47;;;;;;;13.82;10.95;;;;;;;8.70;66.88;101337.59;4993237;28;20027;-70
2022/03/12 04:10:12;;;;;;;13.75;10.75;;;;;;;8.65;66.94;101334.38;4993473;28;20104;-72
2022/03/12 04:12:37;;;;;;;12.77;9.95;;;;;;;8.65;67.03;101335.22;4992677;28;20046;-70
2022/03/12 04:15:03;;;;;;;13.55;10.45;;;;;;;8.62;67.08;101335.41;4993161;28;20050;-70
2022/03/12 04:17:29;;;;;;;12.75;10.30;;;;;;;8.60;67.07;101337.28;4993543;28;20030;-70
2022/03/12 04:19:54;;;;;;;14.00;10.90;;;;;;;8.58;67.73;101341.78;4992257;28;20058;-70
2022/03/12 04:22:20;;;;;;;12.63;9.52;;;;;;;8.56;68.43;101343.63;4993298;28;20351;-70
2022/03/12 04:24:45;;;;;;;13.38;10.23;;;;;;;8.51;69.02;101345.69;4992464;28;20101;-70
2022/03/12 04:27:11;;;;;;;13.75;10.10;;;;;;;8.50;69.24;101351.03;4992995;28;20027;-70
2022/03/12 04:29:37;;;;;;;12.70;9.27;;;;;;;8.48;69.26;101346.72;4992890;28;20053;-70
2022/03/12 04:32:07;;;;;;;10.82;8.52;;;;;;;8.48;70.49;101354.56;4992249;28;20113;-70
2022/03/12 04:34:34;;;;;;;10.88;8.25;;;;;;;8.46;70.75;101339.88;4992993;28;20099;-70
2022/03/12 04:36:59;;;;;;;10.30;7.60;;;;;;;8.45;70.76;101351.28;4991476;28;20407;-70
2022/03/12 04:39:24;;;;;;;10.43;7.95;;;;;;;8.45;71.61;101359.16;4998022;28;20032;-70
2022/03/12 04:41:50;;;;;;;8.85;7.63;;;;;;;8.43;72.05;101355.78;5013482;28;20165;-70
2022/03/12 04:44:15;;;;;;;8.10;7.03;;;;;;;8.41;72.62;101353.25;5019673;28;20025;-71
2022/03/12 04:46:40;;;;;;;9.05;7.28;;;;;;;8.39;72.85;101349.81;5011898;28;20482;-70
2022/03/12 04:49:06;;;;;;;9.63;6.82;;;;;;;8.38;73.14;101357.78;5024339;28;20021;-70
2022/03/12 04:51:31;;;;;;;8.02;6.60;;;;;;;8.37;72.94;101356.09;5032192;28;20026;-70
2022/03/12 04:53:58;;;;;;;7.68;6.50;;;;;;;8.36;72.75;101359.66;5015647;28;20482;-69
2022/03/12 04:56:27;;;;;;;10.15;6.43;;;;;;;8.34;74.83;101357.13;5012414;28;20049;-69
2022/03/12 04:58:54;;;;;;;9.38;6.63;;;;;;;8.33;75.19;101365.91;5005361;28;20041;-69
2022/03/12 05:01:25;;;;;;;7.53;6.68;;;;;;;8.32;74.73;101363.34;4997843;28;20029;-69
2022/03/12 05:03:50;;;;;;;8.68;6.38;;;;;;;8.32;75.06;101368.59;5008864;28;20026;-69
2022/03/12 05:06:18;;;;;;;9.32;6.28;;;;;;;8.32;75.49;101363.34;4989414;28;20026;-70
2022/03/12 05:08:44;;;;;;;9.85;6.50;;;;;;;8.33;75.42;101362.41;5001443;28;20185;-70
2022/03/12 05:11:10;;;;;;;9.55;6.40;;;;;;;8.32;76.16;101365.97;5011291;28;20445;-72
2022/03/12 05:13:35;;;;;;;7.32;6.22;;;;;;;8.31;75.94;101369.53;5010375;28;20046;-72
2022/03/12 05:16:06;;;;;;;7.47;5.57;;;;;;;8.30;76.35;101366.06;5008316;28;20072;-72
2022/03/12 05:18:41;;;;;;;7.88;6.22;;;;;;;8.29;76.08;101374.84;5009922;28;20022;-72
2022/03/12 05:21:07;;;;;;;7.50;6.03;;;;;;;8.28;76.07;101377.56;5008308;28;20383;-72
2022/03/12 05:23:32;;;;;;;9.45;6.43;;;;;;;8.27;76.88;101376.72;5010794;28;20080;-72
2022/03/12 05:25:58;;;;;;;7.60;6.22;;;;;;;8.28;76.74;101388.88;5010480;28;20461;-72
2022/03/12 05:28:30;;;;;;;7.38;6.22;;;;;;;8.26;76.42;101385.50;5008709;28;20029;-72
2022/03/12 05:30:59;;;;;;;9.13;6.57;;;;;;;8.27;76.75;101387.19;5006928;28;20105;-72
2022/03/12 05:33:26;;;;;;;8.40;6.20;;;;;;;8.26;76.75;101388.13;5009105;28;20026;-72
2022/03/12 05:35:54;;;;;;;8.10;6.38;;;;;;;8.27;77.37;101391.59;5005978;28;20112;-72
2022/03/12 05:38:20;;;;;;;9.48;6.55;;;;;;;8.26;77.53;101405.63;5021968;28;20390;-72
2022/03/12 05:40:48;;;;;;;10.18;6.90;;;;;;;8.26;78.08;101400.41;5008621;28;20058;-72
2022/03/12 05:43:17;;;;;;;8.10;6.45;;;;;;;8.24;77.40;101399.63;5008581;28;20053;-72
2022/03/12 05:45:48;;;;;;;8.65;6.97;;;;;;;8.22;77.39;101409.38;5008705;28;20022;-72
2022/03/12 05:48:15;;;;;;;9.98;6.85;;;;;;;8.20;77.33;101401.59;5010121;28;20506;-72
2022/03/12 05:50:42;;;;;;;8.18;6.20;;;;;;;8.18;77.14;101417.41;5009946;28;20474;-72
2022/03/12 05:53:09;;;;;;;7.70;6.63;;;;;;;8.19;77.72;101410.38;5008456;28;20026;-72
2022/03/12 05:55:38;;;;;;;9.35;7.07;;;;;;;8.16;77.25;101416.63;5010628;28;20033;-72
2022/03/12 05:58:04;;;;;;;8.00;6.40;;;;;;;8.17;77.92;101417.47;5010067;28;20466;-71
2022/03/12 06:00:30;;;;;;;8.02;7.10;;;;;;;8.15;77.48;101419.34;5007622;28;20029;-70
2022/03/12 06:02:56;;;;;;;9.15;7.20;;;;;;;8.13;77.75;101416.81;5010424;28;20084;-70
2022/03/12 06:05:26;;;;;;;8.93;7.55;;;;;;;8.09;77.54;101420.53;5009764;28;20028;-70
2022/03/12 06:07:53;;;;;;;10.32;8.45;;;;;;;8.05;77.44;101413.75;5004869;28;20101;-70
2022/03/12 06:10:23;;;;;;;11.85;8.68;;;;;;;8.03;77.37;101418.25;5004594;28;20399;-70
2022/03/12 06:12:51;;;;;;;10.27;8.10;;;;;;;8.01;77.30;101422.72;5010524;28;20378;-71
2022/03/12 06:15:18;;;;;;;10.93;8.68;;;;;;;7.98;77.32;101417.63;5010016;28;20076;-71
2022/03/12 06:17:49;;;;;;;10.90;8.07;;;;;;;7.96;77.56;101419.47;5008120;28;20698;-70
2022/03/12 06:20:15;;;;;;;11.20;8.20;;;;;;;7.93;77.84;101424.03;5010326;28;20040;-70
2022/03/12 06:22:42;;;;;;;10.15;8.25;;;;;;;7.91;77.63;101431.97;5008547;28;20418;-69
2022/03/12 06:25:11;;;;;;;11.10;8.57;;;;;;;7.88;77.58;101432.16;5003577;28;20026;-70
2022/03/12 06:27:37;;;;;;;11.50;8.80;;;;;;;7.88;77.71;101436.53;4998626;28;20497;-71
2022/03/12 06:30:09;;;;;;;12.05;8.77;;;;;;;7.87;77.98;101443.56;5004701;28;20057;-70
2022/03/12 06:32:39;;;;;;;10.27;8.70;;;;;;;7.85;78.10;101437.56;5006580;28;20138;-70
2022/03/12 06:35:05;;;;;;;10.57;8.77;;;;;;;7.82;78.69;101435.94;5009384;28;20022;-70
2022/03/12 06:37:30;;;;;;;13.20;9.05;;;;;;;7.83;78.41;101439.41;5027996;28;20120;-70
2022/03/12 06:39:56;;;;;;;11.90;8.90;;;;;;;7.83;78.38;101439.41;5004043;28;20375;-70
2022/03/12 06:42:27;;;;;;;11.52;9.00;;;;;;;7.85;78.72;101442.78;4989929;28;20026;-70
2022/03/12 06:44:55;;;;;;;10.07;8.27;;;;;;;7.83;78.77;101444.66;5004282;28;20018;-69
2022/03/12 06:47:22;;;;;;;12.20;9.45;;;;;;;7.85;79.24;101455.88;4992619;28;20372;-70
2022/03/12 06:49:48;;;;;;;10.10;8.38;;;;;;;7.85;79.26;101458.50;5000654;28;20424;-70
2022/03/12 06:52:13;;;;;;;15.27;8.80;;;;;;;7.86;79.09;101457.59;4999841;28;20113;-70
2022/03/12 06:54:39;;;;;;;12.02;9.10;;;;;;;7.88;79.14;101453.09;4999045;28;20026;-70
2022/03/12 06:57:04;;;;;;;10.15;8.23;;;;;;;7.88;79.39;101458.34;5000705;28;20137;-70
2022/03/12 06:59:31;;;;;;;10.07;8.32;;;;;;;7.90;79.22;101461.72;4997977;28;20394;-70
2022/03/12 07:01:56;;;;;;;11.88;8.35;;;;;;;7.91;79.46;101458.19;5001161;28;20278;-70
2022/03/12 07:04:21;;;;;;;12.52;8.45;;;;;;;7.93;79.60;101461.56;4993948;28;20038;-70
2022/03/12 07:06:48;;;;;;;12.63;9.00;;;;;;;7.94;80.09;101468.50;4989625;28;20034;-70
2022/03/12 07:09:14;;;;;;;13.88;8.55;;;;;;;7.97;79.68;101465.72;4989048;28;20052;-70
2022/03/12 07:11:39;;;;;;;9.95;8.25;;;;;;;8.02;79.47;101470.75;4993340;28;20022;-70
2022/03/12 07:14:05;;;;;;;10.15;8.15;;;;;;;8.04;79.85;101469.72;5017057;28;20109;-70
2022/03/12 07:16:30;;;;;;;10.20;8.60;;;;;;;8.05;79.93;101471.41;5010085;28;20028;-70
2022/03/12 07:18:56;;;;;;;10.73;7.85;;;;;;;8.08;79.90;101466.00;5014370;28;20056;-70
2022/03/12 07:21:22;;;;;;;12.35;8.35;;;;;;;8.11;80.24;101478.09;5029100;28;20025;-70
2022/03/12 07:23:47;;;;;;;14.90;8.20;;;;;;;8.13;79.65;101474.47;5009755;28;20445;-70
2022/03/12 07:26:14;;;;;;;11.60;8.05;;;;;;;8.15;80.02;101483.09;5008387;28;20292;-70
2022/03/12 07:28:39;;;;;;;12.20;8.10;;;;;;;8.18;79.72;101484.69;5007501;28;20060;-70
2022/03/12 07:31:05;;;;;;;11.63;8.73;;;;;;;8.22;79.64;101482.75;5007813;28;20049;-70
2022/03/12 07:33:30;;;;;;;11.35;8.35;;;;;;;8.25;79.21;101493.06;5005566;28;20037;-70
2022/03/12 07:35:56;;;;;;;10.77;8.35;;;;;;;8.27;79.99;101497.31;5007658;28;20237;-70
2022/03/12 07:38:21;;;;;;;11.65;9.30;;;;;;;8.31;79.76;101497.97;5008685;28;20493;-70
2022/03/12 07:40:46;;;;;;;12.20;8.45;;;;;;;8.35;79.57;101504.78;5008536;28;20485;-70
2022/03/12 07:43:12;;;;;;;10.30;8.57;;;;;;;8.39;79.22;101501.91;5007933;28;20108;-70
2022/03/12 07:45:37;;;;;;;10.93;8.70;;;;;;;8.44;78.87;101509.56;5007240;28;20084;-70
2022/03/12 07:48:04;;;;;;;12.60;9.25;;;;;;;8.48;79.56;101511.06;5006496;28;20406;-70
2022/03/12 07:50:30;;;;;;;10.63;8.35;;;;;;;8.54;79.37;101515.13;5005683;28;20037;-69
2022/03/12 07:52:55;;;;;;;12.07;8.70;;;;;;;8.58;79.33;101517.50;5006350;28;20033;-70
2022/03/12 07:55:21;;;;;;;13.80;9.68;;;;;;;8.63;78.70;101509.38;5008574;28;20029;-70
2022/03/12 07:57:47;;;;;;;11.40;8.88;;;;;;;8.71;78.28;101521.13;5006196;28;20028;-70
2022/03/12 08:00:14;;;;;;;11.20;9.43;;;;;;;8.75;78.80;101520.03;5011457;28;20018;-70
2022/03/12 08:02:41;;;;;;;10.80;8.73;;;;;;;8.83;78.14;101517.00;5008130;28;20048;-70
2022/03/12 08:05:07;;;;;;;11.13;8.93;;;;;;;8.88;78.35;101525.47;5009379;28;20037;-70
2022/03/12 08:07:33;;;;;;;12.85;8.57;;;;;;;8.93;78.04;101525.19;5008289;28;20342;-71
2022/03/12 08:09:59;;;;;;;11.88;8.40;;;;;;;8.98;78.07;101525.78;5007873;28;20037;-72
2022/03/12 08:12:30;;;;;;;11.00;8.70;;;;;;;9.06;77.71;101528.81;5008647;28;20030;-72
2022/03/12 08:14:56;;;;;;;12.63;8.60;;;;;;;9.10;77.81;101540.84;5009038;28;20021;-72
2022/03/12 08:17:23;;;;;;;11.77;8.13;;;;;;;9.15;77.49;101538.78;5011678;28;20116;-72
2022/03/12 08:19:49;;;;;;;10.73;8.52;;;;;;;9.19;77.68;101532.44;5011383;28;20038;-71
2022/03/12 08:22:14;;;;;;;10.80;8.70;;;;;;;9.26;77.23;101540.81;5012559;28;20367;-71
2022/03/12 08:24:40;;;;;;;11.05;8.70;;;;;;;9.32;76.78;101541.31;5011956;28;20583;-71
2022/03/12 08:27:06;;;;;;;14.02;8.77;;;;;;;9.37;77.34;101549.78;5012176;28;20490;-71
2022/03/12 08:29:31;;;;;;;10.35;8.77;;;;;;;9.46;77.08;101552.78;5012764;28;20045;-71
2022/03/12 08:31:57;;;;;;;11.48;8.32;;;;;;;9.50;77.05;101554.31;5011731;28;20053;-71
2022/03/12 08:34:23;;;;;;;11.07;8.85;;;;;;;9.58;76.52;101567.84;5011248;28;20025;-71
2022/03/12 08:36:48;;;;;;;10.50;8.70;;;;;;;9.65;76.62;101566.56;5010844;28;20053;-71
2022/03/12 08:39:15;;;;;;;13.00;8.10;;;;;;;9.73;76.56;101566.97;5011478;28;20430;-71
2022/03/12 08:41:40;;;;;;;11.38;8.50;;;;;;;9.83;76.47;101565.47;5007461;28;20038;-71
2022/03/12 08:44:07;;;;;;;13.65;8.13;;;;;;;9.91;76.15;101560.59;5010343;28;20080;-71
2022/03/12 08:46:35;;;;;;;11.27;7.78;;;;;;;10.00;75.28;101575.81;5014088;28;20030;-72
2022/03/12 08:49:03;;;;;;;11.93;7.15;;;;;;;10.10;75.22;101570.03;5011202;28;20029;-71
2022/03/12 08:51:28;;;;;;;9.82;5.75;;;;;;;10.18;74.03;101563.38;5013526;28;20083;-72
2022/03/12 08:53:55;;;;;;;10.18;5.97;;;;;;;10.27;74.06;101573.34;5010618;28;20021;-71
2022/03/12 08:56:20;;;;;;;10.70;6.03;;;;;;;10.37;73.01;101573.63;5011324;28;20198;-71
2022/03/12 08:58:47;;;;;;;11.52;5.88;;;;;;;10.45;72.83;101581.91;5008612;28;20033;-71
2022/03/12 09:01:12;;;;;;;9.98;5.70;;;;;;;10.49;71.49;101572.88;5008314;28;20032;-72
2022/03/12 09:03:38;;;;;;;7.47;5.63;;;;;;;10.55;71.53;101577.75;5011015;28;20394;-72
2022/03/12 09:06:04;;;;;;;8.07;5.55;;;;;;;10.61;71.62;101579.16;5010602;28;20037;-72
2022/03/12 09:08:30;;;;;;;9.77;5.90;;;;;;;10.65;70.57;101578.88;5010027;28;20036;-72
2022/03/12 09:10:55;;;;;;;7.22;5.13;;;;;;;10.71;70.26;101580.28;5011114;28;20469;-72
2022/03/12 09:13:21;;;;;;;10.38;5.40;;;;;;;10.78;70.36;101578.94;5010819;28;20026;-72
2022/03/12 09:15:47;;;;;;;11.02;5.40;;;;;;;10.83;69.77;101576.03;5013601;28;20025;-72
2022/03/12 09:18:13;;;;;;;9.57;5.03;;;;;;;10.86;69.28;101581.97;5012131;28;20489;-72
2022/03/12 09:20:46;;;;;;;7.25;5.32;;;;;;;10.91;68.96;101586.94;5010993;28;20026;-72
2022/03/12 09:23:12;;;;;;;;;;;;;;;10.99;68.90;101582.00;5011742;28;20561;-72
2022/03/12 09:25:37;;;;;;;10.75;4.60;;;;;;;11.01;68.17;101585.41;5011261;28;20044;-72
2022/03/12 09:28:03;;;;;;;6.85;4.22;;;;;;;11.03;67.78;101586.13;5010380;28;20029;-70
2022/03/12 09:30:28;;;;;;;7.05;3.97;;;;;;;11.06;67.16;101587.72;5011477;28;20030;-70
2022/03/12 09:32:56;;;;;;;8.57;4.30;;;;;;;11.11;66.95;101586.47;5013684;28;20041;-70
2022/03/12 09:35:22;;;;;;;6.80;4.40;;;;;;;11.18;67.15;101579.03;5008294;28;20076;-71
2022/03/12 09:37:48;;;;;;;7.72;4.07;;;;;;;11.23;66.43;101593.63;5009527;28;20453;-70
2022/03/12 09:40:15;;;;;;;9.25;3.90;;;;;;;11.29;65.00;101595.00;5010270;28;20026;-70
2022/03/12 09:42:41;;;;;;;7.28;3.47;;;;;;;11.30;64.12;101588.78;5009514;28;20390;-70
2022/03/12 09:45:07;;;;;;;7.40;3.17;;;;;;;11.35;63.36;101594.59;5009852;28;20036;-70
2022/03/12 09:47:32;;;;;;;10.98;3.25;;;;;;;11.39;63.65;101579.44;5007758;28;20026;-71
2022/03/12 09:49:58;;;;;;;11.07;3.28;;;;;;;11.43;63.14;101583.56;5008257;28;20021;-70
2022/03/12 09:52:26;;;;;;;10.02;3.22;;;;;;;11.42;62.74;101589.78;5010292;28;20022;-70
2022/03/12 09:54:52;;;;;;;11.85;3.38;;;;;;;11.40;62.67;101591.66;5010083;28;20030;-70
2022/03/12 09:57:17;;;;;;;7.93;3.13;;;;;;;11.39;63.08;101601.38;5008217;28;20017;-70
2022/03/12 09:59:42;;;;;;;7.28;3.45;;;;;;;11.42;63.31;101595.03;5008278;28;20619;-70
2022/03/12 10:02:08;;;;;;;6.63;2.95;;;;;;;11.44;63.33;101601.06;5011729;28;20084;-70
2022/03/12 10:04:34;;;;;;;8.38;3.47;;;;;;;11.49;63.13;101597.16;5008565;28;20065;-71
2022/03/12 10:06:59;;;;;;;7.13;3.08;;;;;;;11.54;62.33;101596.88;5011417;28;20053;-70
2022/03/12 10:09:25;;;;;;;8.68;3.35;;;;;;;11.55;62.50;101580.94;5009023;28;20032;-70
2022/03/12 10:11:51;;;;;;;5.40;3.35;;;;;;;11.60;62.68;101597.28;5010228;28;20029;-71
2022/03/12 10:14:17;;;;;;;8.25;3.63;;;;;;;11.67;62.05;101595.13;5010176;28;20124;-71
2022/03/12 10:16:43;;;;;;;7.47;3.10;;;;;;;11.71;61.52;101604.53;5009546;28;20150;-70
2022/03/12 10:19:08;;;;;;;10.85;3.50;;;;;;;11.73;61.24;101597.34;5010179;28;20028;-70
2022/03/12 10:21:37;;;;;;;9.15;3.00;;;;;;;11.75;61.77;101595.47;5010678;28;20048;-70
2022/03/12 10:24:04;;;;;;;11.30;3.50;;;;;;;11.82;61.71;101593.28;5009590;28;20029;-70
2022/03/12 10:26:29;;;;;;;6.97;3.00;;;;;;;11.88;61.07;101606.88;5010310;28;20096;-69
2022/03/12 10:28:54;;;;;;;6.97;3.00;;;;;;;11.88;60.02;101598.97;5011137;28;20077;-70
2022/03/12 10:31:21;;;;;;;13.60;3.40;;;;;;;11.92;60.07;101589.91;5013353;28;20033;-70
2022/03/12 10:33:46;;;;;;;8.35;2.97;;;;;;;11.97;60.62;101591.38;5009990;28;20029;-70
2022/03/12 10:36:17;;;;;;;9.18;2.80;;;;;;;12.02;60.21;101584.88;5010265;28;20052;-70
2022/03/12 10:38:48;;;;;;;9.57;2.65;;;;;;;12.08;59.38;101588.88;5007112;28;20025;-70
2022/03/12 10:41:14;;;;;;;9.10;2.88;;;;;;;12.20;60.47;101594.16;5008219;28;20395;-70
2022/03/12 10:43:50;;;;;;;5.25;2.55;;;;;;;12.32;59.27;101597.75;5008735;28;20108;-70
2022/03/12 10:46:25;;;;;;;5.78;2.83;;;;;;;12.46;59.66;101587.09;5008349;28;20038;-70
2022/03/12 10:48:59;;;;;;;7.57;2.90;;;;;;;12.56;59.27;101592.56;5009287;28;20030;-70
2022/03/12 10:51:27;;;;;;;8.60;2.95;;;;;;;12.65;58.10;101593.69;5008998;28;20044;-70
2022/03/12 10:54:04;;;;;;;9.60;2.95;;;;;;;12.76;58.31;101591.13;5007599;28;20494;-70
2022/03/12 10:56:57;;;;;;;6.82;2.63;;;;;;;12.92;58.01;101589.09;5008042;28;20033;-70
2022/03/12 10:59:25;;;;;;;8.52;2.92;;;;;;;13.04;57.30;101590.00;5004245;28;20053;-70
2022/03/12 11:01:56;;;;;;;6.70;2.45;;;;;;;13.08;56.31;101578.25;5009134;28;20104;-70
2022/03/12 11:04:34;;;;;;;8.32;2.50;;;;;;;13.22;56.53;101587.88;5007818;28;20145;-70
2022/03/12 11:07:19;;;;;;;6.90;2.35;;;;;;;13.24;54.66;101596.53;5008296;28;20037;-70
2022/03/12 11:09:45;;;;;;;4.35;2.10;;;;;;;13.28;54.94;101592.72;5009320;28;20386;-70
2022/03/12 11:12:28;;;;;;;7.03;2.28;;;;;;;13.35;55.26;101605.34;5008153;28;20029;-70
2022/03/12 11:15:04;;;;;;;7.88;2.72;;;;;;;13.40;54.91;101602.38;5006464;28;20032;-70
2022/03/12 11:17:40;;;;;;;5.70;2.25;;;;;;;13.50;54.41;101598.09;5009598;28;20383;-70
2022/03/12 11:20:05;;;;;;;9.82;2.50;;;;;;;13.52;53.83;101596.16;5008749;28;20636;-71
2022/03/12 11:22:31;;;;;;;5.93;2.35;;;;;;;13.54;52.82;101596.88;5009597;28;20030;-70